Time;durP1;ratioP1;P1;durP2;ratioP2;P2;SDS_P1;SDS_P2;PMS_P1;PMS_P2;Temp;Humidity;BMP_temperature;BMP_pressure;BME280_temperature;BME280_humidity;BME280_pressure;Samples;Min_cycle;Max_cycle;Signal;HPM_P1;HPM_P2
2022/06/03 00:02:27;;;;;;;6.43;2.78;;;20.70;47.50;;;;;;4947992;28;20494;-67
2022/06/03 00:05:22;;;;;;;7.80;2.75;;;20.70;47.50;;;;;;4984354;28;20027;-67
2022/06/03 00:07:50;;;;;;;5.68;2.78;;;20.60;47.50;;;;;;4922866;29;20060;-67
2022/06/03 00:10:55;;;;;;;6.18;3.10;;;20.60;47.70;;;;;;4924944;29;20039;-68
2022/06/03 00:13:43;;;;;;;5.50;2.72;;;20.60;47.40;;;;;;4927563;29;20357;-67
2022/06/03 00:16:30;;;;;;;6.53;2.88;;;20.50;47.50;;;;;;4928757;29;20050;-67
2022/06/03 00:19:11;;;;;;;6.70;3.00;;;20.50;47.50;;;;;;4922493;29;20044;-67
2022/06/03 00:22:03;;;;;;;5.78;2.85;;;20.50;47.50;;;;;;4928931;29;20124;-67
2022/06/03 00:24:43;;;;;;;5.85;3.20;;;20.40;47.60;;;;;;4938667;29;20039;-67
2022/06/03 00:27:39;;;;;;;5.85;3.10;;;20.40;47.80;;;;;;4929780;29;20531;-67
2022/06/03 00:30:11;;;;;;;5.90;2.90;;;20.40;48.10;;;;;;4926527;29;20071;-68
2022/06/03 00:33:11;;;;;;;6.57;3.05;;;20.40;48.20;;;;;;4928810;29;20031;-67
2022/06/03 00:35:42;;;;;;;5.60;2.65;;;20.30;48.40;;;;;;4937038;28;20142;-67
2022/06/03 00:38:19;;;;;;;6.30;3.05;;;20.30;48.60;;;;;;4941046;28;20028;-67
2022/06/03 00:41:03;;;;;;;7.40;2.97;;;20.30;49.00;;;;;;4943347;28;20035;-67
2022/06/03 00:43:41;;;;;;;4.72;2.78;;;20.20;49.40;;;;;;4959186;28;20500;-67
2022/06/03 00:46:28;;;;;;;5.20;3.00;;;20.20;49.60;;;;;;5011385;28;20060;-68
2022/06/03 00:49:15;;;;;;;6.30;2.90;;;20.10;49.90;;;;;;5028913;28;20092;-67
2022/06/03 00:52:13;;;;;;;5.90;2.63;;;20.10;50.60;;;;;;5023923;28;20055;-67
2022/06/03 00:54:58;;;;;;;4.95;2.92;;;20.00;51.10;;;;;;5009747;28;20053;-68
2022/06/03 00:57:32;;;;;;;5.70;2.75;;;20.00;51.30;;;;;;5018895;28;20025;-67
2022/06/03 01:00:24;;;;;;;5.55;2.90;;;20.00;51.50;;;;;;5020853;28;20083;-67
2022/06/03 01:03:09;;;;;;;4.22;2.53;;;19.90;51.70;;;;;;5026802;28;20049;-67
2022/06/03 01:05:53;;;;;;;6.32;2.67;;;19.80;51.90;;;;;;5018976;28;20545;-67
2022/06/03 01:08:30;;;;;;;8.70;2.35;;;19.80;51.90;;;;;;5019666;28;20484;-68
2022/06/03 01:11:17;;;;;;;4.85;2.55;;;19.50;51.70;;;;;;5022537;28;20044;-68
2022/06/03 01:13:52;;;;;;;4.90;2.60;;;19.80;51.90;;;;;;5024833;28;20501;-68
2022/06/03 01:16:22;;;;;;;6.53;2.58;;;19.70;51.90;;;;;;5016328;28;20050;-68
2022/06/03 01:19:26;;;;;;;5.95;2.50;;;19.70;52.10;;;;;;5030752;28;20137;-67
2022/06/03 01:22:16;;;;;;;4.20;2.55;;;19.70;52.20;;;;;;5033254;28;20072;-68
2022/06/03 01:25:03;;;;;;;5.95;2.75;;;19.60;52.40;;;;;;5029688;28;20437;-68
2022/06/03 01:28:06;;;;;;;5.43;2.88;;;19.50;53.70;;;;;;5027668;28;20480;-68
2022/06/03 01:31:00;;;;;;;6.47;3.03;;;19.50;53.40;;;;;;5026751;28;20087;-68
2022/06/03 01:34:03;;;;;;;7.07;3.17;;;19.50;53.90;;;;;;5030417;28;20073;-68
2022/06/03 01:36:55;;;;;;;5.75;2.60;;;19.40;54.40;;;;;;5012334;28;20061;-68
2022/06/03 01:39:56;;;;;;;5.03;2.60;;;19.40;54.60;;;;;;5006849;28;20069;-68
2022/06/03 01:42:32;;;;;;;4.25;2.50;;;19.40;54.80;;;;;;4910419;29;20040;-68
2022/06/03 01:44:58;;;;;;;6.25;3.00;;;19.30;55.10;;;;;;4910749;29;20665;-68
2022/06/03 01:48:10;;;;;;;5.22;2.40;;;19.30;55.30;;;;;;4910918;29;20466;-68
2022/06/03 01:50:56;;;;;;;4.20;2.38;;;19.20;55.50;;;;;;4910990;29;20123;-68
2022/06/03 01:53:43;;;;;;;4.78;2.40;;;19.20;55.60;;;;;;4911882;29;20055;-68
2022/06/03 01:56:23;;;;;;;4.32;2.50;;;19.20;55.60;;;;;;4910381;29;20052;-67
2022/06/03 01:59:13;;;;;;;5.22;2.47;;;19.10;55.60;;;;;;4908400;29;20115;-67
2022/06/03 02:02:14;;;;;;;6.53;3.00;;;19.10;55.60;;;;;;4907850;29;20521;-68
2022/06/03 02:05:15;;;;;;;4.75;2.50;;;19.10;55.70;;;;;;4908678;29;20036;-67
2022/06/03 02:08:05;;;;;;;5.63;2.70;;;19.00;56.00;;;;;;4857445;29;20080;-68
2022/06/03 02:11:06;;;;;;;6.25;2.65;;;18.90;56.30;;;;;;4854880;29;20048;-67
2022/06/03 02:13:35;;;;;;;7.10;2.42;;;18.90;56.50;;;;;;4873308;29;20044;-68
2022/06/03 02:16:21;;;;;;;5.38;2.70;;;18.90;56.60;;;;;;4917856;28;20600;-68
2022/06/03 02:19:20;;;;;;;5.18;2.60;;;18.90;56.80;;;;;;4980626;28;20031;-68
2022/06/03 02:21:55;;;;;;;5.40;2.70;;;18.80;56.80;;;;;;4969221;28;20031;-68
2022/06/03 02:24:40;;;;;;;4.55;2.80;;;18.80;57.00;;;;;;4963267;28;20081;-68
2022/06/03 02:27:28;;;;;;;4.53;2.30;;;18.80;57.50;;;;;;4947407;28;20047;-68
2022/06/03 02:30:34;;;;;;;4.57;2.70;;;18.70;57.10;;;;;;4950721;28;20043;-68
2022/06/03 02:33:03;;;;;;;4.88;2.22;;;18.70;57.30;;;;;;4953153;28;20546;-68
2022/06/03 02:35:47;;;;;;;5.65;2.60;;;18.60;57.30;;;;;;4950845;28;20036;-67
2022/06/03 02:38:46;;;;;;;4.68;2.60;;;18.60;57.80;;;;;;4948202;28;20522;-68
2022/06/03 02:41:38;;;;;;;4.03;2.70;;;18.60;58.30;;;;;;4962879;28;20031;-68
2022/06/03 02:44:25;;;;;;;8.73;2.90;;;18.60;58.70;;;;;;5002926;28;20069;-68
2022/06/03 02:47:22;;;;;;;6.18;2.85;;;18.50;59.00;;;;;;5014473;28;20033;-68
2022/06/03 02:50:25;;;;;;;4.93;2.38;;;18.40;59.30;;;;;;5026162;28;20121;-67
2022/06/03 02:53:18;;;;;;;5.68;2.50;;;18.40;59.40;;;;;;5014767;28;20045;-68
2022/06/03 02:56:16;;;;;;;8.98;2.60;;;18.40;59.50;;;;;;5023985;28;20056;-68
2022/06/03 02:59:12;;;;;;;5.53;2.65;;;18.40;59.40;;;;;;5024819;28;20531;-68
2022/06/03 03:02:13;;;;;;;6.40;2.60;;;18.30;59.10;;;;;;5024524;28;20758;-68
2022/06/03 03:05:13;;;;;;;8.13;2.60;;;18.30;59.30;;;;;;5015138;28;20029;-68
2022/06/03 03:07:52;;;;;;;4.00;2.60;;;18.30;59.50;;;;;;5027285;28;20415;-68
2022/06/03 03:10:35;;;;;;;4.38;2.53;;;18.30;60.30;;;;;;5020816;28;20030;-68
2022/06/03 03:13:45;;;;;;;4.57;2.38;;;18.20;59.50;;;;;;5020549;28;20029;-68
2022/06/03 03:16:26;;;;;;;6.47;2.60;;;18.20;59.50;;;;;;5008480;28;20069;-68
2022/06/03 03:19:23;;;;;;;4.70;2.50;;;18.20;59.50;;;;;;4996369;28;20038;-68
2022/06/03 03:22:26;;;;;;;3.88;2.13;;;18.20;59.70;;;;;;4983796;28;20046;-67
2022/06/03 03:25:15;;;;;;;5.72;2.58;;;18.20;59.90;;;;;;5004247;28;20038;-67
2022/06/03 03:28:02;;;;;;;5.60;2.33;;;18.20;59.40;;;;;;5000946;28;20140;-67
2022/06/03 03:30:39;;;;;;;6.63;2.35;;;18.20;59.30;;;;;;5000919;28;20042;-67
2022/06/03 03:33:38;;;;;;;4.15;2.53;;;18.20;59.30;;;;;;4998958;28;20045;-67
2022/06/03 03:36:06;;;;;;;4.85;2.60;;;18.20;59.00;;;;;;4999478;28;20088;-67
2022/06/03 03:38:50;;;;;;;4.25;2.40;;;18.20;59.20;;;;;;4999718;28;20030;-68
2022/06/03 03:41:37;;;;;;;5.78;2.47;;;18.30;59.70;;;;;;4992224;28;20029;-67
2022/06/03 03:44:58;;;;;;;5.10;2.60;;;18.30;60.10;;;;;;5002051;28;20039;-67
2022/06/03 03:47:55;;;;;;;7.93;2.70;;;18.30;60.40;;;;;;4929804;29;20122;-67
2022/06/03 03:50:57;;;;;;;6.22;2.25;;;18.20;60.70;;;;;;4933931;29;20050;-67
2022/06/03 03:54:00;;;;;;;4.15;2.40;;;18.20;61.30;;;;;;4935731;28;20039;-68
2022/06/03 03:56:57;;;;;;;6.80;2.58;;;18.20;61.60;;;;;;4938565;28;20051;-68
2022/06/03 03:59:39;;;;;;;7.72;2.97;;;18.20;61.80;;;;;;4944514;28;20604;-68
2022/06/03 04:02:21;;;;;;;4.90;2.42;;;18.20;61.80;;;;;;4944491;28;20066;-68
2022/06/03 04:05:08;;;;;;;3.75;2.35;;;18.20;61.90;;;;;;4936606;28;20058;-68
2022/06/03 04:08:14;;;;;;;5.13;2.53;;;18.20;62.00;;;;;;4941539;28;20043;-68
2022/06/03 04:11:01;;;;;;;5.68;2.63;;;18.20;62.00;;;;;;4943668;28;20545;-68
2022/06/03 04:14:00;;;;;;;5.90;2.58;;;18.20;62.20;;;;;;4939591;28;20149;-68
2022/06/03 04:16:48;;;;;;;3.58;2.28;;;18.20;62.60;;;;;;4946524;28;20102;-68
2022/06/03 04:19:36;;;;;;;6.00;2.50;;;18.20;62.50;;;;;;4947517;28;20058;-68
2022/06/03 04:22:31;;;;;;;4.53;2.20;;;18.20;62.40;;;;;;4947129;28;20086;-68
2022/06/03 04:25:05;;;;;;;7.63;2.60;;;18.20;62.30;;;;;;5006604;28;20046;-68
2022/06/03 04:27:40;;;;;;;4.68;2.60;;;18.20;62.20;;;;;;5004245;28;20412;-68
2022/06/03 04:30:21;;;;;;;7.10;2.58;;;18.20;62.00;;;;;;5003210;28;20038;-68
2022/06/03 04:33:28;;;;;;;5.43;2.42;;;18.20;61.60;;;;;;5020097;28;20482;-68
2022/06/03 04:36:15;;;;;;;5.80;2.70;;;18.20;61.30;;;;;;4998149;28;20409;-68
2022/06/03 04:39:14;;;;;;;7.22;2.45;;;18.20;61.30;;;;;;5008646;28;20113;-68
2022/06/03 04:42:07;;;;;;;6.38;2.30;;;18.20;60.90;;;;;;5013521;28;20034;-67
2022/06/03 04:44:38;;;;;;;10.35;2.53;;;18.20;60.70;;;;;;4997971;28;20027;-68
2022/06/03 04:47:25;;;;;;;10.88;2.35;;;18.20;60.50;;;;;;5008354;28;20046;-68
2022/06/03 04:50:15;;;;;;;8.00;2.40;;;18.30;60.20;;;;;;5004863;28;20085;-68
2022/06/03 04:52:41;;;;;;;5.47;2.53;;;18.30;59.70;;;;;;5002434;28;20489;-68
2022/06/03 04:55:31;;;;;;;7.13;2.50;;;18.30;59.40;;;;;;5007696;28;20086;-68
2022/06/03 04:58:25;;;;;;;6.22;2.40;;;18.40;59.00;;;;;;5014052;28;20041;-67
2022/06/03 05:00:58;;;;;;;6.25;2.63;;;18.40;58.80;;;;;;5007763;28;20034;-68
2022/06/03 05:03:45;;;;;;;6.80;2.40;;;18.50;59.20;;;;;;5008522;28;20042;-67
2022/06/03 05:06:32;;;;;;;6.28;2.40;;;18.50;60.00;;;;;;5011723;28;20040;-67
2022/06/03 05:09:18;;;;;;;4.18;2.17;;;18.50;60.30;;;;;;5003112;28;20068;-68
2022/06/03 05:12:02;;;;;;;8.48;2.30;;;18.50;60.70;;;;;;5004743;28;20504;-67
2022/06/03 05:14:42;;;;;;;5.78;2.40;;;18.50;61.20;;;;;;5031041;28;20041;-68
2022/06/03 05:17:23;;;;;;;4.83;2.37;;;18.50;61.80;;;;;;5021634;28;21264;-68
2022/06/03 05:19:54;;;;;;;5.40;2.50;;;18.60;61.80;;;;;;5030384;28;20292;-69
2022/06/03 05:22:56;;;;;;;9.23;2.38;;;18.60;61.60;;;;;;5025191;28;20546;-69
2022/06/03 05:25:59;;;;;;;7.63;2.30;;;18.60;61.50;;;;;;5017034;28;20038;-69
2022/06/03 05:28:50;;;;;;;6.13;2.03;;;18.70;61.70;;;;;;5028945;28;20084;-69
2022/06/03 05:31:52;;;;;;;4.63;2.58;;;18.70;61.80;;;;;;5025170;28;20029;-69
2022/06/03 05:34:27;;;;;;;5.60;2.45;;;18.80;62.00;;;;;;5027094;28;20056;-69
2022/06/03 05:37:31;;;;;;;8.43;2.60;;;18.80;61.90;;;;;;5019672;28;20075;-69
2022/06/03 05:40:12;;;;;;;6.18;2.40;;;18.90;62.30;;;;;;5029992;28;20033;-69
2022/06/03 05:43:05;;;;;;;5.60;2.30;;;18.90;61.90;;;;;;5023253;28;20037;-70
2022/06/03 05:46:03;;;;;;;7.68;2.22;;;19.00;60.80;;;;;;5024530;28;20029;-70
2022/06/03 05:48:35;;;;;;;5.70;2.13;;;19.00;60.00;;;;;;5002005;28;20109;-70
2022/06/03 05:51:37;;;;;;;7.55;2.40;;;19.10;59.60;;;;;;5013358;28;20091;-70
2022/06/03 05:54:15;;;;;;;4.75;2.13;;;19.10;59.10;;;;;;5011268;28;20523;-70
2022/06/03 05:56:58;;;;;;;6.90;2.00;;;19.20;59.20;;;;;;5009321;28;20046;-70
2022/06/03 05:59:29;;;;;;;4.85;2.10;;;19.30;59.40;;;;;;5007535;28;20492;-70
2022/06/03 06:02:13;;;;;;;4.50;2.17;;;19.30;59.70;;;;;;5005147;28;20082;-70
2022/06/03 06:05:22;;;;;;;6.40;2.30;;;19.40;59.30;;;;;;5009635;28;20033;-69
2022/06/03 06:08:10;;;;;;;6.18;2.38;;;19.50;58.50;;;;;;4983724;28;20046;-69
2022/06/03 06:11:10;;;;;;;4.75;1.90;;;19.50;58.10;;;;;;4996055;28;20034;-70
2022/06/03 06:13:43;;;;;;;12.60;2.30;;;19.60;57.60;;;;;;4998993;28;20048;-69
2022/06/03 06:16:20;;;;;;;6.20;2.13;;;19.60;57.10;;;;;;5001003;28;20067;-68
2022/06/03 06:19:18;;;;;;;4.00;2.10;;;19.60;57.00;;;;;;5000170;28;20092;-69
2022/06/03 06:22:09;;;;;;;6.35;2.30;;;19.70;56.80;;;;;;5001819;28;20567;-69
2022/06/03 06:24:34;;;;;;;6.13;2.28;;;19.80;56.40;;;;;;5003063;28;20500;-69
2022/06/03 06:27:23;;;;;;;9.77;2.10;;;19.80;56.50;;;;;;5024147;28;20044;-70
2022/06/03 06:30:05;;;;;;;6.53;2.20;;;20.00;56.60;;;;;;5019462;28;20439;-69
2022/06/03 06:32:40;;;;;;;6.88;2.13;;;19.90;56.40;;;;;;5022378;28;20117;-70
2022/06/03 06:35:18;;;;;;;6.25;2.30;;;20.00;56.20;;;;;;5019098;28;20488;-71
2022/06/03 06:37:56;;;;;;;5.18;2.15;;;20.00;57.00;;;;;;5027197;28;20037;-70
2022/06/03 06:40:40;;;;;;;6.07;2.10;;;20.00;56.00;;;;;;5019746;28;20030;-70
2022/06/03 06:43:24;;;;;;;4.30;2.03;;;20.10;55.90;;;;;;5023467;28;20128;-70
2022/06/03 06:45:56;;;;;;;7.47;2.30;;;20.10;56.10;;;;;;5023746;28;20037;-72
2022/06/03 06:48:47;;;;;;;4.22;2.10;;;20.10;56.10;;;;;;5019333;28;20041;-71
2022/06/03 06:51:34;;;;;;;6.60;2.30;;;20.20;56.20;;;;;;5021098;28;20512;-69
2022/06/03 06:54:27;;;;;;;4.35;2.30;;;20.20;56.30;;;;;;5019425;28;20514;-69
2022/06/03 06:57:03;;;;;;;5.07;2.22;;;20.30;56.50;;;;;;5021363;28;20553;-70
2022/06/03 06:59:54;;;;;;;4.45;2.03;;;20.30;56.50;;;;;;5017500;28;20159;-69
2022/06/03 07:02:50;;;;;;;6.25;2.30;;;20.30;56.60;;;;;;5023915;28;20051;-69
2022/06/03 07:05:40;;;;;;;5.68;2.40;;;20.30;57.00;;;;;;5011742;28;20041;-69
2022/06/03 07:08:23;;;;;;;4.38;2.20;;;20.40;57.10;;;;;;5011393;28;20124;-69
2022/06/03 07:10:49;;;;;;;5.88;2.50;;;20.40;57.10;;;;;;5011970;28;20049;-69
2022/06/03 07:13:36;;;;;;;4.35;2.13;;;20.40;57.00;;;;;;5011376;28;20033;-70
2022/06/03 07:16:14;;;;;;;5.60;2.40;;;20.50;57.20;;;;;;5014963;28;20049;-69
2022/06/03 07:22:11;;;;;;;4.50;2.33;;;20.70;57.40;;;;;;5014601;28;20739;-70
2022/06/03 07:24:40;;;;;;;4.57;2.20;;;20.50;56.90;;;;;;5011137;28;20973;-69
2022/06/03 07:27:17;;;;;;;4.78;2.63;;;20.60;57.30;;;;;;5011939;28;20052;-70
2022/06/03 07:29:48;;;;;;;5.22;2.33;;;20.60;57.40;;;;;;5009895;28;20033;-70
2022/06/03 07:32:28;;;;;;;7.78;2.30;;;20.60;57.20;;;;;;5011373;28;20451;-69
2022/06/03 07:35:03;;;;;;;7.38;2.35;;;20.60;57.80;;;;;;5010512;28;20049;-69
2022/06/03 07:37:45;;;;;;;7.32;2.70;;;20.60;57.80;;;;;;5013519;28;20557;-69
2022/06/03 07:40:29;;;;;;;6.28;2.50;;;20.60;58.10;;;;;;5011588;28;20033;-70
2022/06/03 07:43:13;;;;;;;7.80;2.58;;;20.50;58.10;;;;;;5024712;28;20585;-70
2022/06/03 07:45:59;;;;;;;6.30;2.50;;;20.40;58.30;;;;;;5023285;28;20120;-71
2022/06/03 07:48:28;;;;;;;7.78;2.83;;;20.30;59.10;;;;;;5021153;28;20029;-70
2022/06/03 07:51:05;;;;;;;10.43;2.95;;;20.30;59.80;;;;;;5022428;28;20424;-69
2022/06/03 07:53:50;;;;;;;7.35;2.60;;;20.20;59.80;;;;;;5021947;28;20488;-69
2022/06/03 07:56:43;;;;;;;7.82;2.70;;;20.20;59.80;;;;;;5023260;28;21615;-69
2022/06/03 07:59:17;;;;;;;7.25;2.63;;;20.10;60.00;;;;;;5021291;28;20044;-69
2022/06/03 08:01:55;;;;;;;8.60;2.70;;;20.20;60.30;;;;;;5019383;28;20036;-69
2022/06/03 08:04:29;;;;;;;12.45;2.90;;;20.20;60.00;;;;;;5023527;28;20086;-69
2022/06/03 08:12:29;;;;;;;5.80;2.53;;;20.10;60.30;;;;;;5017749;28;20045;-69
2022/06/03 08:14:55;;;;;;;6.40;2.80;;;20.10;60.30;;;;;;5021115;28;20544;-69
2022/06/03 08:17:23;;;;;;;6.22;2.50;;;20.10;59.90;;;;;;5021058;28;20033;-69
2022/06/03 08:19:50;;;;;;;6.57;2.72;;;20.20;59.80;;;;;;5022030;28;20661;-69
2022/06/03 08:22:20;;;;;;;5.40;2.47;;;20.20;59.80;;;;;;5020258;28;20033;-70
2022/06/03 08:24:54;;;;;;;7.00;2.88;;;20.20;59.40;;;;;;5022704;28;20033;-70
2022/06/03 08:27:25;;;;;;;4.75;3.05;;;20.20;59.20;;;;;;5020729;28;20881;-69
2022/06/03 08:30:01;;;;;;;6.60;2.80;;;20.30;59.20;;;;;;5022540;28;20044;-69
2022/06/03 08:33:08;;;;;;;7.82;2.70;;;20.30;58.70;;;;;;5019969;28;20033;-70
2022/06/03 08:35:43;;;;;;;10.48;3.10;;;20.40;59.20;;;;;;4989886;28;20022;-70
2022/06/03 08:38:19;;;;;;;7.47;2.40;;;20.40;58.30;;;;;;4987645;28;20077;-70
2022/06/03 08:41:38;;;;;;;4.88;2.30;;;20.50;58.80;;;;;;4990736;28;20045;-69
2022/06/03 08:44:19;;;;;;;6.63;2.10;;;20.50;57.20;;;;;;4988058;28;20041;-69
2022/06/03 08:47:06;;;;;;;;;;;20.50;57.20;;;;;;4988275;28;20413;-68
2022/06/03 08:49:54;;;;;;;7.05;2.88;;;20.40;57.30;;;;;;4989384;28;19948;-69
2022/06/03 08:52:26;;;;;;;7.43;3.08;;;20.40;57.40;;;;;;4990749;28;20107;-68
2022/06/03 08:54:55;;;;;;;6.63;2.80;;;20.40;58.20;;;;;;4989930;28;20144;-70
2022/06/03 08:57:36;;;;;;;6.90;2.75;;;20.40;59.10;;;;;;4990642;28;20030;-70
2022/06/03 09:00:14;;;;;;;6.80;2.53;;;20.40;61.20;;;;;;4988629;28;20128;-70
2022/06/03 09:02:53;;;;;;;8.43;2.92;;;20.40;61.00;;;;;;4990142;28;20068;-70
2022/06/03 09:05:29;;;;;;;7.00;2.80;;;20.40;62.80;;;;;;4992107;28;20068;-70
2022/06/03 09:08:03;;;;;;;7.25;3.38;;;20.40;64.00;;;;;;5017472;28;20041;-69
2022/06/03 09:10:37;;;;;;;9.25;3.20;;;20.40;65.40;;;;;;5014522;28;20408;-69
2022/06/03 09:13:27;;;;;;;11.55;3.47;;;20.50;66.10;;;;;;5022300;28;20037;-70
2022/06/03 09:15:55;;;;;;;5.63;3.08;;;20.40;67.00;;;;;;5016271;28;20117;-70
2022/06/03 09:18:36;;;;;;;8.45;3.42;;;20.50;66.60;;;;;;5020575;28;20057;-69
2022/06/03 09:21:18;;;;;;;6.00;3.05;;;20.50;66.70;;;;;;5018834;28;20029;-70
2022/06/03 09:23:54;;;;;;;6.53;3.13;;;20.60;66.30;;;;;;5020835;28;20563;-70
2022/06/03 09:26:29;;;;;;;6.15;3.38;;;20.70;66.30;;;;;;5019239;28;20030;-70
2022/06/03 09:28:57;;;;;;;8.05;3.40;;;20.80;67.30;;;;;;5020984;28;20039;-69
2022/06/03 09:31:26;;;;;;;6.40;3.35;;;20.80;66.80;;;;;;5024656;28;20033;-69
2022/06/03 09:33:54;;;;;;;5.05;3.10;;;20.90;66.50;;;;;;5025272;28;20046;-69
2022/06/03 09:36:20;;;;;;;6.28;3.08;;;20.90;66.60;;;;;;5023175;28;20029;-70
2022/06/03 09:38:52;;;;;;;7.22;3.28;;;20.80;66.70;;;;;;5020669;28;20044;-69
2022/06/03 09:41:21;;;;;;;5.22;3.20;;;20.90;67.30;;;;;;5024284;28;20530;-68
2022/06/03 09:43:53;;;;;;;6.40;2.90;;;20.80;66.80;;;;;;5023129;28;20037;-69
2022/06/03 09:46:21;;;;;;;8.57;3.35;;;20.70;67.30;;;;;;5025545;28;20030;-69
2022/06/03 09:48:48;;;;;;;5.75;3.20;;;20.70;68.50;;;;;;5022708;28;20041;-71
2022/06/03 09:51:55;;;;;;;5.63;3.67;;;20.60;69.60;;;;;;5023418;28;20040;-69
2022/06/03 09:54:13;;;;;;;7.70;3.33;;;20.60;70.10;;;;;;5022014;28;20068;-69
2022/06/03 09:56:40;;;;;;;4.68;3.13;;;20.50;72.10;;;;;;5023581;28;20045;-69
2022/06/03 09:59:09;;;;;;;5.38;3.30;;;20.40;73.30;;;;;;5020176;28;20049;-69
2022/06/03 10:01:35;;;;;;;5.82;3.15;;;20.30;73.70;;;;;;5023223;28;20048;-69
2022/06/03 10:04:05;;;;;;;6.18;3.58;;;20.20;75.10;;;;;;5022611;28;20444;-69
2022/06/03 10:06:47;;;;;;;7.05;3.25;;;20.20;76.20;;;;;;5024127;28;20063;-69
2022/06/03 10:15:55;;;;;;;5.07;3.08;;;20.00;78.30;;;;;;5021299;28;20037;-69
2022/06/03 10:17:58;;;;;;;5.22;3.25;;;20.00;79.40;;;;;;5011271;28;20180;-69
2022/06/03 10:20:25;;;;;;;6.82;3.67;;;19.90;80.20;;;;;;5021759;28;20152;-69
2022/06/03 10:22:51;;;;;;;9.23;3.75;;;19.90;81.00;;;;;;5020167;28;20125;-68
2022/06/03 10:25:17;;;;;;;10.48;4.70;;;19.90;83.70;;;;;;5022958;28;20488;-68
2022/06/03 10:27:46;;;;;;;18.95;5.72;;;19.70;87.70;;;;;;5023406;28;20116;-68
2022/06/03 10:30:14;;;;;;;9.45;5.13;;;19.50;90.80;;;;;;5023163;28;20037;-68
2022/06/03 10:32:41;;;;;;;19.10;6.05;;;19.30;92.40;;;;;;5023662;28;20033;-68
2022/06/03 10:35:16;;;;;;;15.55;7.30;;;19.10;93.80;;;;;;5022663;28;20136;-68
2022/06/03 10:37:55;;;;;;;11.95;7.30;;;19.00;94.40;;;;;;5021526;28;20044;-68
2022/06/03 10:40:24;;;;;;;13.02;6.68;;;18.90;95.10;;;;;;5023766;28;20045;-68
2022/06/03 10:42:56;;;;;;;11.02;6.05;;;18.90;95.40;;;;;;5025220;28;20036;-68
2022/06/03 10:45:37;;;;;;;10.65;5.78;;;18.80;95.40;;;;;;5023492;28;20029;-68
2022/06/03 10:48:24;;;;;;;9.32;6.38;;;18.90;95.30;;;;;;5022184;28;20064;-68
2022/06/03 10:50:50;;;;;;;8.15;6.05;;;18.90;95.30;;;;;;5022380;28;20051;-68
2022/06/03 11:01:53;;;;;;;11.90;6.28;;;19.80;93.60;;;;;;5013107;28;20037;-67
2022/06/03 11:04:24;;;;;;;18.23;6.35;;;19.70;93.60;;;;;;5011122;28;20651;-69
2022/06/03 11:06:49;;;;;;;11.75;6.60;;;19.80;93.50;;;;;;5034652;28;20099;-68
2022/06/03 11:09:16;;;;;;;10.65;6.32;;;19.80;93.70;;;;;;5020532;28;20038;-68
2022/06/03 11:11:50;;;;;;;15.15;6.50;;;19.90;94.10;;;;;;5039641;28;20139;-68
2022/06/03 11:14:38;;;;;;;11.48;6.07;;;20.00;94.10;;;;;;5017758;28;20040;-68
2022/06/03 11:17:09;;;;;;;14.48;6.55;;;20.10;93.40;;;;;;5013591;28;20029;-69
2022/06/03 11:19:43;;;;;;;;;;;20.20;93.30;;;;;;5029843;28;20430;-69
2022/06/03 11:22:19;;;;;;;8.82;5.35;;;20.30;93.90;;;;;;5022774;28;20000;-69
2022/06/03 11:25:03;;;;;;;10.10;4.85;;;20.70;92.10;;;;;;5019084;28;20035;-68
2022/06/03 11:27:55;;;;;;;9.10;5.28;;;22.10;86.00;;;;;;5033865;28;20037;-68
2022/06/03 11:30:54;;;;;;;8.65;4.63;;;23.20;79.50;;;;;;5035964;28;20112;-69
2022/06/03 11:33:24;;;;;;;7.15;3.95;;;22.80;80.20;;;;;;5034335;28;20028;-69
2022/06/03 11:35:52;;;;;;;;;;;22.50;79.90;;;;;;5033905;28;20400;-69
2022/06/03 11:38:39;;;;;;;7.65;4.13;;;22.20;82.60;;;;;;5036205;28;20294;-68
2022/06/03 11:41:28;;;;;;;6.95;3.85;;;22.10;83.60;;;;;;5028559;28;20032;-69
2022/06/03 11:44:12;;;;;;;8.45;3.88;;;21.90;83.60;;;;;;5033656;28;20040;-68
2022/06/03 11:46:46;;;;;;;10.77;4.20;;;21.90;83.30;;;;;;5018407;28;20084;-68
2022/06/03 11:49:18;;;;;;;6.18;3.17;;;22.10;83.50;;;;;;5033192;28;20036;-68
2022/06/03 11:51:46;;;;;;;7.15;3.25;;;23.20;77.80;;;;;;5037019;28;20029;-69
2022/06/03 11:54:14;;;;;;;7.28;3.70;;;23.40;73.10;;;;;;5019964;28;20049;-68
2022/06/03 11:56:41;;;;;;;6.22;3.33;;;23.40;72.80;;;;;;5022312;28;20682;-68
2022/06/03 11:59:31;;;;;;;10.00;3.83;;;23.70;70.90;;;;;;5026816;28;20123;-69
2022/06/03 12:02:10;;;;;;;5.15;3.50;;;24.20;69.20;;;;;;5021612;28;20084;-70
2022/06/03 12:04:45;;;;;;;6.78;3.10;;;25.10;67.30;;;;;;5032954;28;20029;-70
2022/06/03 12:07:44;;;;;;;7.30;3.70;;;25.40;63.80;;;;;;5024453;28;20029;-69
2022/06/03 12:10:24;;;;;;;5.93;3.40;;;25.00;65.10;;;;;;5030234;28;20028;-69
2022/06/03 12:13:21;;;;;;;7.75;3.40;;;24.70;65.30;;;;;;5032526;28;20492;-69
2022/06/03 12:15:59;;;;;;;5.57;3.55;;;24.50;64.50;;;;;;5026888;28;20033;-69
2022/06/03 12:18:42;;;;;;;7.82;3.10;;;24.40;64.70;;;;;;5026917;28;20088;-69
2022/06/03 12:21:08;;;;;;;5.60;3.00;;;24.50;64.30;;;;;;5027449;28;20035;-69
2022/06/03 12:23:33;;;;;;;5.95;3.05;;;24.40;62.10;;;;;;5033179;28;20026;-68
2022/06/03 12:25:59;;;;;;;6.53;3.22;;;24.40;61.50;;;;;;5027943;28;20081;-69
2022/06/03 12:28:33;;;;;;;7.72;3.30;;;24.70;61.40;;;;;;5038924;28;20026;-69
2022/06/03 12:31:14;;;;;;;6.93;3.53;;;24.90;61.90;;;;;;5029367;28;20036;-69
2022/06/03 12:34:01;;;;;;;5.80;3.47;;;24.80;62.90;;;;;;5030788;28;20057;-69
2022/06/03 12:36:33;;;;;;;6.55;3.15;;;24.70;64.20;;;;;;5033651;28;20032;-69
2022/06/03 12:39:08;;;;;;;6.18;3.40;;;24.70;65.30;;;;;;5025815;28;20496;-69
2022/06/03 12:41:46;;;;;;;5.55;3.33;;;24.70;65.50;;;;;;5021738;28;20479;-69
2022/06/03 12:44:43;;;;;;;6.55;3.28;;;24.80;63.20;;;;;;5028826;28;20030;-69
2022/06/03 12:47:27;;;;;;;7.35;3.10;;;24.80;63.50;;;;;;5021243;28;20036;-69
2022/06/03 12:49:57;;;;;;;5.30;3.13;;;24.80;63.90;;;;;;5021369;28;20052;-69
2022/06/03 12:52:25;;;;;;;8.50;3.08;;;24.80;63.50;;;;;;5021234;28;20108;-69
2022/06/03 12:55:12;;;;;;;6.00;3.03;;;24.80;64.10;;;;;;5024146;28;20053;-69
2022/06/03 12:57:46;;;;;;;5.13;3.30;;;24.90;64.80;;;;;;5029419;28;20493;-69
2022/06/03 13:00:18;;;;;;;8.88;2.97;;;25.00;61.50;;;;;;5028618;28;20029;-68
2022/06/03 13:03:01;;;;;;;5.63;2.90;;;25.00;61.20;;;;;;5028385;28;20044;-68
2022/06/03 13:05:41;;;;;;;4.82;2.47;;;25.00;62.40;;;;;;5037507;28;20037;-69
2022/06/03 13:08:32;;;;;;;4.38;2.50;;;25.10;61.40;;;;;;5026978;28;20411;-69
2022/06/03 13:11:01;;;;;;;6.07;2.60;;;25.40;59.30;;;;;;5028238;28;20030;-68
2022/06/03 13:13:30;;;;;;;5.10;2.40;;;26.00;57.90;;;;;;5030856;28;20033;-69
2022/06/03 13:16:17;;;;;;;5.82;2.35;;;26.00;57.50;;;;;;5036602;28;20035;-68
2022/06/03 13:18:52;;;;;;;7.35;2.60;;;26.00;56.20;;;;;;5031355;28;20467;-68
2022/06/03 13:21:27;;;;;;;6.65;2.72;;;26.00;56.90;;;;;;5030830;28;20507;-68
2022/06/03 13:24:26;;;;;;;7.05;2.55;;;25.90;56.70;;;;;;5036060;28;20400;-69
2022/06/03 13:26:58;;;;;;;7.90;2.67;;;25.90;56.40;;;;;;5026430;28;20551;-68
2022/06/03 13:29:49;;;;;;;6.43;2.63;;;25.90;57.10;;;;;;5035602;28;20499;-69
2022/06/03 13:32:19;;;;;;;8.02;2.80;;;25.90;57.10;;;;;;5032359;28;20040;-68
2022/06/03 13:34:45;;;;;;;4.63;2.58;;;25.90;56.30;;;;;;5030236;28;20076;-68
2022/06/03 13:37:40;;;;;;;7.15;2.50;;;26.00;56.50;;;;;;5030381;28;20112;-68
2022/06/03 13:40:16;;;;;;;7.55;2.40;;;26.00;57.80;;;;;;5039172;28;20045;-69
2022/06/03 13:42:57;;;;;;;6.28;2.50;;;26.10;56.50;;;;;;5021188;28;20057;-69
2022/06/03 13:45:46;;;;;;;4.20;2.17;;;26.20;55.70;;;;;;5028115;28;20037;-68
2022/06/03 13:48:21;;;;;;;4.88;2.53;;;26.20;55.40;;;;;;5024325;28;20029;-69
2022/06/03 13:50:47;;;;;;;4.63;2.35;;;26.20;54.60;;;;;;5027271;28;20456;-68
2022/06/03 13:53:24;;;;;;;6.30;2.40;;;26.30;53.40;;;;;;5029833;28;20021;-69
2022/06/03 13:55:56;;;;;;;7.45;2.72;;;26.20;53.00;;;;;;5026151;28;20103;-69
2022/06/03 13:58:44;;;;;;;5.70;2.80;;;26.20;53.00;;;;;;5028260;28;20115;-69
2022/06/03 14:01:39;;;;;;;5.13;2.78;;;26.20;53.90;;;;;;5027481;28;20037;-69
2022/06/03 14:04:14;;;;;;;7.88;3.00;;;26.30;51.70;;;;;;5026663;28;20056;-69
2022/06/03 14:07:03;;;;;;;7.60;2.63;;;26.30;51.30;;;;;;5038636;28;20030;-69
2022/06/03 14:09:34;;;;;;;4.72;2.50;;;26.40;51.00;;;;;;5014310;28;20485;-68
2022/06/03 14:12:24;;;;;;;5.80;2.40;;;26.50;52.00;;;;;;5031441;28;20025;-68
2022/06/03 14:15:06;;;;;;;4.13;2.20;;;26.60;53.20;;;;;;5030732;28;20014;-68
2022/06/03 14:17:33;;;;;;;4.53;2.22;;;26.80;52.20;;;;;;5026942;28;20033;-69
2022/06/03 14:19:59;;;;;;;4.45;2.30;;;26.80;51.90;;;;;;5032275;28;20116;-69
2022/06/03 14:22:41;;;;;;;5.65;2.20;;;26.80;51.60;;;;;;5034527;28;20110;-68
2022/06/03 14:25:41;;;;;;;7.10;2.20;;;26.70;50.60;;;;;;5031758;28;20037;-68
2022/06/03 14:28:07;;;;;;;5.03;2.20;;;26.60;51.10;;;;;;5026197;28;20057;-68
2022/06/03 14:30:57;;;;;;;4.72;2.10;;;26.60;52.20;;;;;;5027442;28;20581;-68